sensor_id;sensor_type;location;lat;lon;timestamp;P1;durP1;ratioP1;P2;durP2;ratioP2
48823;SDS011;34640;53.590;10.054;2022-11-20T00:01:56;6.70;;;3.03;;
48823;SDS011;34640;53.590;10.054;2022-11-20T00:04:30;9.38;;;3.33;;
48823;SDS011;34640;53.590;10.054;2022-11-20T00:07:04;6.90;;;3.00;;
48823;SDS011;34640;53.590;10.054;2022-11-20T00:09:38;6.38;;;3.53;;
48823;SDS011;34640;53.590;10.054;2022-11-20T00:12:13;9.55;;;3.40;;
48823;SDS011;34640;53.590;10.054;2022-11-20T00:14:46;9.38;;;3.60;;
48823;SDS011;34640;53.590;10.054;2022-11-20T00:17:20;6.63;;;3.28;;
48823;SDS011;34640;53.590;10.054;2022-11-20T00:19:54;9.10;;;3.10;;
48823;SDS011;34640;53.590;10.054;2022-11-20T00:22:28;5.40;;;2.70;;
48823;SDS011;34640;53.590;10.054;2022-11-20T00:25:01;6.35;;;2.72;;
48823;SDS011;34640;53.590;10.054;2022-11-20T00:27:37;8.00;;;3.35;;
48823;SDS011;34640;53.590;10.054;2022-11-20T00:30:11;6.30;;;2.80;;
48823;SDS011;34640;53.590;10.054;2022-11-20T00:32:46;9.93;;;3.00;;
48823;SDS011;34640;53.590;10.054;2022-11-20T00:35:20;5.55;;;2.78;;
48823;SDS011;34640;53.590;10.054;2022-11-20T00:37:53;6.53;;;3.05;;
48823;SDS011;34640;53.590;10.054;2022-11-20T00:40:27;9.57;;;3.67;;
48823;SDS011;34640;53.590;10.054;2022-11-20T00:43:02;5.57;;;3.00;;
48823;SDS011;34640;53.590;10.054;2022-11-20T00:45:36;7.00;;;3.05;;
48823;SDS011;34640;53.590;10.054;2022-11-20T00:48:10;8.82;;;3.25;;
48823;SDS011;34640;53.590;10.054;2022-11-20T00:50:44;6.53;;;2.80;;
48823;SDS011;34640;53.590;10.054;2022-11-20T00:53:17;6.35;;;3.08;;
48823;SDS011;34640;53.590;10.054;2022-11-20T00:55:54;8.43;;;3.00;;
48823;SDS011;34640;53.590;10.054;2022-11-20T00:58:30;6.18;;;3.10;;
48823;SDS011;34640;53.590;10.054;2022-11-20T01:01:06;11.30;;;3.28;;
48823;SDS011;34640;53.590;10.054;2022-11-20T01:03:42;9.35;;;2.90;;
48823;SDS011;34640;53.590;10.054;2022-11-20T01:06:18;6.47;;;3.17;;
48823;SDS011;34640;53.590;10.054;2022-11-20T01:08:54;9.32;;;2.97;;
48823;SDS011;34640;53.590;10.054;2022-11-20T01:11:30;9.73;;;3.20;;
48823;SDS011;34640;53.590;10.054;2022-11-20T01:14:07;5.25;;;2.47;;
48823;SDS011;34640;53.590;10.054;2022-11-20T01:16:44;6.55;;;2.95;;
48823;SDS011;34640;53.590;10.054;2022-11-20T01:19:19;7.95;;;3.38;;
48823;SDS011;34640;53.590;10.054;2022-11-20T01:21:55;8.65;;;3.10;;
48823;SDS011;34640;53.590;10.054;2022-11-20T01:24:28;7.90;;;2.53;;
48823;SDS011;34640;53.590;10.054;2022-11-20T01:27:02;5.70;;;3.05;;
48823;SDS011;34640;53.590;10.054;2022-11-20T01:29:37;7.05;;;3.28;;
48823;SDS011;34640;53.590;10.054;2022-11-20T01:32:10;6.47;;;3.22;;
48823;SDS011;34640;53.590;10.054;2022-11-20T01:34:44;5.43;;;2.85;;
48823;SDS011;34640;53.590;10.054;2022-11-20T01:37:18;6.75;;;2.92;;
48823;SDS011;34640;53.590;10.054;2022-11-20T01:39:51;8.75;;;3.20;;
48823;SDS011;34640;53.590;10.054;2022-11-20T01:42:25;6.70;;;3.00;;
48823;SDS011;34640;53.590;10.054;2022-11-20T01:48:26;9.88;;;3.47;;
48823;SDS011;34640;53.590;10.054;2022-11-20T01:51:06;4.45;;;2.60;;
48823;SDS011;34640;53.590;10.054;2022-11-20T01:53:46;6.00;;;3.40;;
48823;SDS011;34640;53.590;10.054;2022-11-20T01:56:20;7.15;;;3.28;;
48823;SDS011;34640;53.590;10.054;2022-11-20T01:58:56;6.03;;;3.17;;
48823;SDS011;34640;53.590;10.054;2022-11-20T02:01:35;6.93;;;3.47;;
48823;SDS011;34640;53.590;10.054;2022-11-20T02:04:11;7.43;;;2.92;;
48823;SDS011;34640;53.590;10.054;2022-11-20T02:06:47;8.13;;;3.28;;
48823;SDS011;34640;53.590;10.054;2022-11-20T02:09:25;5.45;;;3.20;;
48823;SDS011;34640;53.590;10.054;2022-11-20T02:11:59;6.15;;;3.30;;
48823;SDS011;34640;53.590;10.054;2022-11-20T02:14:33;7.32;;;3.45;;
48823;SDS011;34640;53.590;10.054;2022-11-20T02:17:07;7.05;;;3.40;;
48823;SDS011;34640;53.590;10.054;2022-11-20T02:19:41;8.05;;;3.38;;
48823;SDS011;34640;53.590;10.054;2022-11-20T02:22:17;7.55;;;3.53;;
48823;SDS011;34640;53.590;10.054;2022-11-20T02:24:56;4.97;;;2.90;;
48823;SDS011;34640;53.590;10.054;2022-11-20T02:30:08;5.43;;;3.30;;
48823;SDS011;34640;53.590;10.054;2022-11-20T02:32:44;8.52;;;2.97;;
48823;SDS011;34640;53.590;10.054;2022-11-20T02:38:13;7.43;;;3.20;;
48823;SDS011;34640;53.590;10.054;2022-11-20T02:40:49;7.65;;;3.58;;
48823;SDS011;34640;53.590;10.054;2022-11-20T02:43:27;7.65;;;3.60;;
48823;SDS011;34640;53.590;10.054;2022-11-20T02:46:00;7.55;;;3.25;;
48823;SDS011;34640;53.590;10.054;2022-11-20T02:48:34;8.10;;;3.33;;
48823;SDS011;34640;53.590;10.054;2022-11-20T02:51:08;6.65;;;3.15;;
48823;SDS011;34640;53.590;10.054;2022-11-20T02:53:42;8.65;;;3.55;;
48823;SDS011;34640;53.590;10.054;2022-11-20T02:56:17;9.10;;;3.67;;
48823;SDS011;34640;53.590;10.054;2022-11-20T02:58:51;10.38;;;3.28;;
48823;SDS011;34640;53.590;10.054;2022-11-20T03:01:24;5.20;;;3.40;;
48823;SDS011;34640;53.590;10.054;2022-11-20T03:03:58;7.90;;;3.38;;
48823;SDS011;34640;53.590;10.054;2022-11-20T03:06:32;7.18;;;3.55;;
48823;SDS011;34640;53.590;10.054;2022-11-20T03:09:06;7.53;;;3.63;;
48823;SDS011;34640;53.590;10.054;2022-11-20T03:11:41;8.13;;;3.60;;
48823;SDS011;34640;53.590;10.054;2022-11-20T03:14:15;6.68;;;3.88;;
48823;SDS011;34640;53.590;10.054;2022-11-20T03:16:49;6.88;;;3.03;;
48823;SDS011;34640;53.590;10.054;2022-11-20T03:19:23;6.72;;;3.10;;
48823;SDS011;34640;53.590;10.054;2022-11-20T03:21:57;9.82;;;3.85;;
48823;SDS011;34640;53.590;10.054;2022-11-20T03:24:30;9.00;;;3.33;;
48823;SDS011;34640;53.590;10.054;2022-11-20T03:27:05;5.60;;;3.00;;
48823;SDS011;34640;53.590;10.054;2022-11-20T03:29:39;9.10;;;3.30;;
48823;SDS011;34640;53.590;10.054;2022-11-20T03:32:13;6.80;;;3.15;;
48823;SDS011;34640;53.590;10.054;2022-11-20T03:34:47;6.50;;;3.08;;
48823;SDS011;34640;53.590;10.054;2022-11-20T03:37:21;6.68;;;3.38;;
48823;SDS011;34640;53.590;10.054;2022-11-20T03:39:54;7.85;;;3.33;;
48823;SDS011;34640;53.590;10.054;2022-11-20T03:42:29;5.22;;;2.72;;
48823;SDS011;34640;53.590;10.054;2022-11-20T03:45:18;5.50;;;3.33;;
48823;SDS011;34640;53.590;10.054;2022-11-20T03:47:52;7.53;;;3.05;;
48823;SDS011;34640;53.590;10.054;2022-11-20T03:50:26;6.78;;;3.63;;
48823;SDS011;34640;53.590;10.054;2022-11-20T03:52:59;8.10;;;3.08;;
48823;SDS011;34640;53.590;10.054;2022-11-20T03:55:33;6.72;;;3.20;;
48823;SDS011;34640;53.590;10.054;2022-11-20T03:58:08;6.32;;;3.30;;
48823;SDS011;34640;53.590;10.054;2022-11-20T04:00:42;6.95;;;2.95;;
48823;SDS011;34640;53.590;10.054;2022-11-20T04:03:16;5.45;;;3.13;;
48823;SDS011;34640;53.590;10.054;2022-11-20T04:05:50;7.63;;;2.97;;
48823;SDS011;34640;53.590;10.054;2022-11-20T04:08:24;7.75;;;3.05;;
48823;SDS011;34640;53.590;10.054;2022-11-20T04:11:07;5.35;;;2.90;;
48823;SDS011;34640;53.590;10.054;2022-11-20T04:13:45;5.65;;;2.95;;
48823;SDS011;34640;53.590;10.054;2022-11-20T04:16:21;5.60;;;2.90;;
48823;SDS011;34640;53.590;10.054;2022-11-20T04:18:56;9.43;;;3.05;;
48823;SDS011;34640;53.590;10.054;2022-11-20T04:21:30;6.03;;;2.75;;
48823;SDS011;34640;53.590;10.054;2022-11-20T04:24:05;5.65;;;3.00;;
48823;SDS011;34640;53.590;10.054;2022-11-20T04:26:39;13.35;;;3.40;;
48823;SDS011;34640;53.590;10.054;2022-11-20T04:29:14;5.97;;;2.78;;
48823;SDS011;34640;53.590;10.054;2022-11-20T04:31:48;6.15;;;3.33;;
48823;SDS011;34640;53.590;10.054;2022-11-20T04:34:22;8.30;;;3.33;;
48823;SDS011;34640;53.590;10.054;2022-11-20T04:36:55;6.93;;;2.90;;
48823;SDS011;34640;53.590;10.054;2022-11-20T04:39:29;7.22;;;3.05;;
48823;SDS011;34640;53.590;10.054;2022-11-20T04:42:03;5.75;;;3.33;;
48823;SDS011;34640;53.590;10.054;2022-11-20T04:44:56;13.25;;;4.22;;
48823;SDS011;34640;53.590;10.054;2022-11-20T04:47:30;8.68;;;3.15;;
48823;SDS011;34640;53.590;10.054;2022-11-20T04:50:04;6.32;;;3.20;;
48823;SDS011;34640;53.590;10.054;2022-11-20T04:52:38;9.82;;;2.78;;
48823;SDS011;34640;53.590;10.054;2022-11-20T04:55:12;5.72;;;3.08;;
48823;SDS011;34640;53.590;10.054;2022-11-20T04:57:49;6.85;;;3.47;;
48823;SDS011;34640;53.590;10.054;2022-11-20T05:00:25;6.00;;;3.15;;
48823;SDS011;34640;53.590;10.054;2022-11-20T05:02:58;9.13;;;3.28;;
48823;SDS011;34640;53.590;10.054;2022-11-20T05:05:33;4.80;;;2.95;;
48823;SDS011;34640;53.590;10.054;2022-11-20T05:08:07;6.35;;;3.40;;
48823;SDS011;34640;53.590;10.054;2022-11-20T05:10:40;6.00;;;3.03;;
48823;SDS011;34640;53.590;10.054;2022-11-20T05:13:14;6.60;;;3.30;;
48823;SDS011;34640;53.590;10.054;2022-11-20T05:15:50;4.95;;;2.75;;
48823;SDS011;34640;53.590;10.054;2022-11-20T05:18:23;8.35;;;3.22;;
48823;SDS011;34640;53.590;10.054;2022-11-20T05:20:57;5.28;;;3.35;;
48823;SDS011;34640;53.590;10.054;2022-11-20T05:23:32;8.68;;;3.28;;
48823;SDS011;34640;53.590;10.054;2022-11-20T05:26:06;6.25;;;3.63;;
48823;SDS011;34640;53.590;10.054;2022-11-20T05:28:41;5.03;;;3.08;;
48823;SDS011;34640;53.590;10.054;2022-11-20T05:31:18;7.38;;;3.63;;
48823;SDS011;34640;53.590;10.054;2022-11-20T05:33:58;4.57;;;3.28;;
48823;SDS011;34640;53.590;10.054;2022-11-20T05:36:32;6.35;;;3.47;;
48823;SDS011;34640;53.590;10.054;2022-11-20T05:39:06;5.97;;;3.55;;
48823;SDS011;34640;53.590;10.054;2022-11-20T05:41:40;5.78;;;3.42;;
48823;SDS011;34640;53.590;10.054;2022-11-20T05:44:14;6.53;;;2.85;;
48823;SDS011;34640;53.590;10.054;2022-11-20T05:46:49;8.13;;;3.35;;
48823;SDS011;34640;53.590;10.054;2022-11-20T05:49:23;6.57;;;3.10;;
48823;SDS011;34640;53.590;10.054;2022-11-20T05:51:57;7.25;;;3.63;;
48823;SDS011;34640;53.590;10.054;2022-11-20T05:54:30;8.05;;;3.20;;
48823;SDS011;34640;53.590;10.054;2022-11-20T05:57:04;7.22;;;3.63;;
48823;SDS011;34640;53.590;10.054;2022-11-20T05:59:38;5.50;;;3.53;;
48823;SDS011;34640;53.590;10.054;2022-11-20T06:02:13;6.75;;;3.90;;
48823;SDS011;34640;53.590;10.054;2022-11-20T06:04:47;7.40;;;3.67;;
48823;SDS011;34640;53.590;10.054;2022-11-20T06:07:21;8.18;;;3.50;;
48823;SDS011;34640;53.590;10.054;2022-11-20T06:09:55;8.93;;;3.35;;
48823;SDS011;34640;53.590;10.054;2022-11-20T06:12:30;6.78;;;3.58;;
48823;SDS011;34640;53.590;10.054;2022-11-20T06:15:05;7.50;;;3.40;;
48823;SDS011;34640;53.590;10.054;2022-11-20T06:17:41;7.85;;;3.38;;
48823;SDS011;34640;53.590;10.054;2022-11-20T06:20:14;8.00;;;4.18;;
48823;SDS011;34640;53.590;10.054;2022-11-20T06:22:48;7.20;;;4.15;;
48823;SDS011;34640;53.590;10.054;2022-11-20T06:25:22;10.07;;;4.82;;
48823;SDS011;34640;53.590;10.054;2022-11-20T06:27:56;10.63;;;5.25;;
48823;SDS011;34640;53.590;10.054;2022-11-20T06:30:29;9.02;;;4.47;;
48823;SDS011;34640;53.590;10.054;2022-11-20T06:33:04;10.93;;;5.63;;
48823;SDS011;34640;53.590;10.054;2022-11-20T06:35:38;12.23;;;6.57;;
48823;SDS011;34640;53.590;10.054;2022-11-20T06:38:12;15.68;;;6.93;;
48823;SDS011;34640;53.590;10.054;2022-11-20T06:40:46;10.68;;;6.30;;
48823;SDS011;34640;53.590;10.054;2022-11-20T06:43:19;10.60;;;6.47;;
48823;SDS011;34640;53.590;10.054;2022-11-20T06:45:53;14.77;;;6.22;;
48823;SDS011;34640;53.590;10.054;2022-11-20T06:48:29;12.90;;;7.05;;
48823;SDS011;34640;53.590;10.054;2022-11-20T06:51:03;12.10;;;7.03;;
48823;SDS011;34640;53.590;10.054;2022-11-20T06:53:38;11.73;;;7.13;;
48823;SDS011;34640;53.590;10.054;2022-11-20T06:56:12;12.48;;;7.00;;
48823;SDS011;34640;53.590;10.054;2022-11-20T06:58:46;12.77;;;7.10;;
48823;SDS011;34640;53.590;10.054;2022-11-20T07:01:20;13.10;;;6.40;;
48823;SDS011;34640;53.590;10.054;2022-11-20T07:03:55;8.82;;;5.63;;
48823;SDS011;34640;53.590;10.054;2022-11-20T07:06:28;9.10;;;5.72;;
48823;SDS011;34640;53.590;10.054;2022-11-20T07:09:02;14.27;;;5.45;;
48823;SDS011;34640;53.590;10.054;2022-11-20T07:11:43;10.13;;;5.63;;
48823;SDS011;34640;53.590;10.054;2022-11-20T07:14:17;8.32;;;4.68;;
48823;SDS011;34640;53.590;10.054;2022-11-20T07:16:51;9.52;;;5.20;;
48823;SDS011;34640;53.590;10.054;2022-11-20T07:19:26;9.02;;;5.13;;
48823;SDS011;34640;53.590;10.054;2022-11-20T07:22:00;7.55;;;4.55;;
48823;SDS011;34640;53.590;10.054;2022-11-20T07:24:34;7.53;;;4.32;;
48823;SDS011;34640;53.590;10.054;2022-11-20T07:27:07;7.93;;;4.53;;
48823;SDS011;34640;53.590;10.054;2022-11-20T07:29:41;7.25;;;4.45;;
48823;SDS011;34640;53.590;10.054;2022-11-20T07:32:15;11.32;;;5.03;;
48823;SDS011;34640;53.590;10.054;2022-11-20T07:34:50;8.60;;;4.82;;
48823;SDS011;34640;53.590;10.054;2022-11-20T07:37:24;7.10;;;4.18;;
48823;SDS011;34640;53.590;10.054;2022-11-20T07:39:58;8.68;;;4.60;;
48823;SDS011;34640;53.590;10.054;2022-11-20T07:42:32;9.23;;;4.13;;
48823;SDS011;34640;53.590;10.054;2022-11-20T07:45:06;9.90;;;4.50;;
48823;SDS011;34640;53.590;10.054;2022-11-20T07:47:40;11.68;;;4.13;;
48823;SDS011;34640;53.590;10.054;2022-11-20T07:50:15;6.53;;;3.90;;
48823;SDS011;34640;53.590;10.054;2022-11-20T07:52:49;8.13;;;4.22;;
48823;SDS011;34640;53.590;10.054;2022-11-20T07:55:24;7.65;;;3.97;;
48823;SDS011;34640;53.590;10.054;2022-11-20T07:57:57;13.65;;;4.63;;
48823;SDS011;34640;53.590;10.054;2022-11-20T08:00:31;7.20;;;4.22;;
48823;SDS011;34640;53.590;10.054;2022-11-20T08:03:05;8.00;;;4.30;;
48823;SDS011;34640;53.590;10.054;2022-11-20T08:05:42;12.00;;;4.30;;
48823;SDS011;34640;53.590;10.054;2022-11-20T08:08:15;7.78;;;3.90;;
48823;SDS011;34640;53.590;10.054;2022-11-20T08:10:49;8.15;;;4.15;;
48823;SDS011;34640;53.590;10.054;2022-11-20T08:13:23;11.07;;;3.92;;
48823;SDS011;34640;53.590;10.054;2022-11-20T08:16:14;6.85;;;3.97;;
48823;SDS011;34640;53.590;10.054;2022-11-20T08:18:48;6.00;;;3.72;;
48823;SDS011;34640;53.590;10.054;2022-11-20T08:21:23;7.93;;;4.25;;
48823;SDS011;34640;53.590;10.054;2022-11-20T08:23:57;5.55;;;3.55;;
48823;SDS011;34640;53.590;10.054;2022-11-20T08:26:31;7.88;;;3.85;;
48823;SDS011;34640;53.590;10.054;2022-11-20T08:29:05;5.22;;;3.33;;
48823;SDS011;34640;53.590;10.054;2022-11-20T08:31:39;10.57;;;3.60;;
48823;SDS011;34640;53.590;10.054;2022-11-20T08:34:13;7.40;;;3.95;;
48823;SDS011;34640;53.590;10.054;2022-11-20T08:36:51;5.32;;;3.25;;
48823;SDS011;34640;53.590;10.054;2022-11-20T08:39:25;8.70;;;3.58;;
48823;SDS011;34640;53.590;10.054;2022-11-20T08:41:59;5.45;;;4.13;;
48823;SDS011;34640;53.590;10.054;2022-11-20T08:44:32;6.25;;;3.45;;
48823;SDS011;34640;53.590;10.054;2022-11-20T08:47:06;5.15;;;3.17;;
48823;SDS011;34640;53.590;10.054;2022-11-20T08:49:40;5.90;;;3.22;;
48823;SDS011;34640;53.590;10.054;2022-11-20T08:52:15;3.85;;;2.88;;
48823;SDS011;34640;53.590;10.054;2022-11-20T08:54:49;17.02;;;3.00;;
48823;SDS011;34640;53.590;10.054;2022-11-20T08:57:22;5.15;;;3.03;;
48823;SDS011;34640;53.590;10.054;2022-11-20T08:59:56;4.53;;;2.80;;
48823;SDS011;34640;53.590;10.054;2022-11-20T09:02:50;4.82;;;2.80;;
48823;SDS011;34640;53.590;10.054;2022-11-20T09:05:24;5.38;;;3.05;;
48823;SDS011;34640;53.590;10.054;2022-11-20T09:07:59;5.00;;;2.75;;
48823;SDS011;34640;53.590;10.054;2022-11-20T09:10:33;4.70;;;3.03;;
48823;SDS011;34640;53.590;10.054;2022-11-20T09:13:07;5.32;;;3.20;;
48823;SDS011;34640;53.590;10.054;2022-11-20T09:15:40;5.90;;;2.92;;
48823;SDS011;34640;53.590;10.054;2022-11-20T09:18:14;4.53;;;2.78;;
48823;SDS011;34640;53.590;10.054;2022-11-20T09:20:48;3.85;;;2.92;;
48823;SDS011;34640;53.590;10.054;2022-11-20T09:23:23;4.50;;;3.33;;
48823;SDS011;34640;53.590;10.054;2022-11-20T09:25:57;6.13;;;3.55;;
48823;SDS011;34640;53.590;10.054;2022-11-20T09:28:32;5.43;;;3.63;;
48823;SDS011;34640;53.590;10.054;2022-11-20T09:31:06;5.90;;;3.55;;
48823;SDS011;34640;53.590;10.054;2022-11-20T09:33:41;7.32;;;3.88;;
48823;SDS011;34640;53.590;10.054;2022-11-20T09:36:15;5.28;;;3.75;;
48823;SDS011;34640;53.590;10.054;2022-11-20T09:38:52;6.75;;;3.47;;
48823;SDS011;34640;53.590;10.054;2022-11-20T09:41:38;6.95;;;4.00;;
48823;SDS011;34640;53.590;10.054;2022-11-20T09:44:39;5.43;;;3.20;;
48823;SDS011;34640;53.590;10.054;2022-11-20T09:47:24;4.82;;;3.40;;
48823;SDS011;34640;53.590;10.054;2022-11-20T09:50:10;5.38;;;3.78;;
48823;SDS011;34640;53.590;10.054;2022-11-20T09:53:00;5.40;;;3.63;;
48823;SDS011;34640;53.590;10.054;2022-11-20T09:55:45;6.90;;;3.30;;
48823;SDS011;34640;53.590;10.054;2022-11-20T09:58:27;5.70;;;3.90;;
48823;SDS011;34640;53.590;10.054;2022-11-20T10:01:08;5.78;;;3.90;;
48823;SDS011;34640;53.590;10.054;2022-11-20T10:03:46;5.50;;;3.25;;
48823;SDS011;34640;53.590;10.054;2022-11-20T10:06:28;6.57;;;3.88;;
48823;SDS011;34640;53.590;10.054;2022-11-20T10:09:06;6.38;;;3.78;;
48823;SDS011;34640;53.590;10.054;2022-11-20T10:11:55;7.72;;;3.70;;
48823;SDS011;34640;53.590;10.054;2022-11-20T10:14:42;5.85;;;3.88;;
48823;SDS011;34640;53.590;10.054;2022-11-20T10:17:32;6.88;;;3.45;;
48823;SDS011;34640;53.590;10.054;2022-11-20T10:20:19;6.25;;;3.47;;
48823;SDS011;34640;53.590;10.054;2022-11-20T10:23:11;6.88;;;3.70;;
48823;SDS011;34640;53.590;10.054;2022-11-20T10:26:00;7.95;;;3.67;;
48823;SDS011;34640;53.590;10.054;2022-11-20T10:28:40;4.72;;;3.35;;
48823;SDS011;34640;53.590;10.054;2022-11-20T10:31:32;4.75;;;3.10;;
48823;SDS011;34640;53.590;10.054;2022-11-20T10:34:12;6.03;;;3.45;;
48823;SDS011;34640;53.590;10.054;2022-11-20T10:36:55;4.63;;;3.28;;
48823;SDS011;34640;53.590;10.054;2022-11-20T10:39:32;5.57;;;3.22;;
48823;SDS011;34640;53.590;10.054;2022-11-20T10:42:14;5.22;;;2.80;;
48823;SDS011;34640;53.590;10.054;2022-11-20T10:44:52;3.70;;;2.65;;
48823;SDS011;34640;53.590;10.054;2022-11-20T10:47:38;5.28;;;3.40;;
48823;SDS011;34640;53.590;10.054;2022-11-20T10:50:14;4.30;;;2.92;;
48823;SDS011;34640;53.590;10.054;2022-11-20T10:52:55;4.57;;;2.88;;
48823;SDS011;34640;53.590;10.054;2022-11-20T10:55:39;4.63;;;3.03;;
48823;SDS011;34640;53.590;10.054;2022-11-20T10:58:20;4.75;;;2.70;;
48823;SDS011;34640;53.590;10.054;2022-11-20T11:01:15;4.75;;;2.80;;
48823;SDS011;34640;53.590;10.054;2022-11-20T11:03:50;4.18;;;2.67;;
48823;SDS011;34640;53.590;10.054;2022-11-20T11:06:28;4.05;;;2.67;;
48823;SDS011;34640;53.590;10.054;2022-11-20T11:09:09;5.55;;;2.42;;
48823;SDS011;34640;53.590;10.054;2022-11-20T11:11:47;4.82;;;2.58;;
48823;SDS011;34640;53.590;10.054;2022-11-20T11:14:21;5.65;;;2.90;;
48823;SDS011;34640;53.590;10.054;2022-11-20T11:16:58;8.88;;;3.63;;
48823;SDS011;34640;53.590;10.054;2022-11-20T11:19:32;5.40;;;3.00;;
48823;SDS011;34640;53.590;10.054;2022-11-20T11:22:06;5.05;;;3.08;;
48823;SDS011;34640;53.590;10.054;2022-11-20T11:24:51;4.30;;;2.95;;
48823;SDS011;34640;53.590;10.054;2022-11-20T11:27:26;6.70;;;3.38;;
48823;SDS011;34640;53.590;10.054;2022-11-20T11:30:11;6.03;;;2.75;;
48823;SDS011;34640;53.590;10.054;2022-11-20T11:32:48;3.88;;;2.80;;
48823;SDS011;34640;53.590;10.054;2022-11-20T11:35:23;5.20;;;3.10;;
48823;SDS011;34640;53.590;10.054;2022-11-20T11:38:02;3.65;;;2.53;;
48823;SDS011;34640;53.590;10.054;2022-11-20T11:40:37;3.30;;;2.45;;
48823;SDS011;34640;53.590;10.054;2022-11-20T11:43:17;4.85;;;2.60;;
48823;SDS011;34640;53.590;10.054;2022-11-20T11:46:21;2.88;;;2.25;;
48823;SDS011;34640;53.590;10.054;2022-11-20T11:49:01;3.65;;;2.30;;
48823;SDS011;34640;53.590;10.054;2022-11-20T11:51:47;4.00;;;2.38;;
48823;SDS011;34640;53.590;10.054;2022-11-20T11:54:35;4.32;;;2.05;;
48823;SDS011;34640;53.590;10.054;2022-11-20T11:57:15;3.00;;;1.98;;
48823;SDS011;34640;53.590;10.054;2022-11-20T12:00:00;3.88;;;2.45;;
48823;SDS011;34640;53.590;10.054;2022-11-20T12:05:16;3.55;;;2.30;;
48823;SDS011;34640;53.590;10.054;2022-11-20T12:07:53;3.38;;;2.25;;
48823;SDS011;34640;53.590;10.054;2022-11-20T12:10:36;3.42;;;2.22;;
48823;SDS011;34640;53.590;10.054;2022-11-20T12:13:29;9.88;;;2.65;;
48823;SDS011;34640;53.590;10.054;2022-11-20T12:16:10;4.35;;;2.30;;
48823;SDS011;34640;53.590;10.054;2022-11-20T12:18:47;5.50;;;2.38;;
48823;SDS011;34640;53.590;10.054;2022-11-20T12:21:28;3.20;;;2.10;;
48823;SDS011;34640;53.590;10.054;2022-11-20T12:24:16;3.58;;;2.40;;
48823;SDS011;34640;53.590;10.054;2022-11-20T12:27:11;3.28;;;2.30;;
48823;SDS011;34640;53.590;10.054;2022-11-20T12:30:00;3.97;;;2.13;;
48823;SDS011;34640;53.590;10.054;2022-11-20T12:35:52;3.33;;;2.47;;
48823;SDS011;34640;53.590;10.054;2022-11-20T12:38:45;3.22;;;2.30;;
48823;SDS011;34640;53.590;10.054;2022-11-20T12:41:37;2.80;;;2.08;;
48823;SDS011;34640;53.590;10.054;2022-11-20T12:44:41;3.92;;;2.30;;
48823;SDS011;34640;53.590;10.054;2022-11-20T12:47:51;3.10;;;1.92;;
48823;SDS011;34640;53.590;10.054;2022-11-20T12:50:51;5.65;;;2.30;;
48823;SDS011;34640;53.590;10.054;2022-11-20T12:53:53;3.80;;;2.00;;
48823;SDS011;34640;53.590;10.054;2022-11-20T12:56:35;4.68;;;2.50;;
48823;SDS011;34640;53.590;10.054;2022-11-20T12:59:21;3.38;;;2.38;;
48823;SDS011;34640;53.590;10.054;2022-11-20T13:02:09;3.47;;;2.30;;
48823;SDS011;34640;53.590;10.054;2022-11-20T13:07:32;3.60;;;2.03;;
48823;SDS011;34640;53.590;10.054;2022-11-20T13:10:13;6.95;;;3.60;;
48823;SDS011;34640;53.590;10.054;2022-11-20T13:12:54;7.47;;;3.50;;
48823;SDS011;34640;53.590;10.054;2022-11-20T13:15:35;4.93;;;2.78;;
48823;SDS011;34640;53.590;10.054;2022-11-20T13:18:17;3.10;;;2.00;;
48823;SDS011;34640;53.590;10.054;2022-11-20T13:20:52;2.30;;;1.92;;
48823;SDS011;34640;53.590;10.054;2022-11-20T13:23:26;3.85;;;2.15;;
48823;SDS011;34640;53.590;10.054;2022-11-20T13:26:06;4.82;;;2.13;;
48823;SDS011;34640;53.590;10.054;2022-11-20T13:28:59;5.18;;;2.83;;
48823;SDS011;34640;53.590;10.054;2022-11-20T13:31:35;5.25;;;2.75;;
48823;SDS011;34640;53.590;10.054;2022-11-20T13:34:12;3.42;;;2.13;;
48823;SDS011;34640;53.590;10.054;2022-11-20T13:36:57;3.30;;;2.33;;
48823;SDS011;34640;53.590;10.054;2022-11-20T13:39:33;5.28;;;2.90;;
48823;SDS011;34640;53.590;10.054;2022-11-20T13:42:20;4.15;;;2.35;;
48823;SDS011;34640;53.590;10.054;2022-11-20T13:45:00;4.07;;;2.33;;
48823;SDS011;34640;53.590;10.054;2022-11-20T13:47:35;3.63;;;2.40;;
48823;SDS011;34640;53.590;10.054;2022-11-20T13:50:09;3.00;;;2.17;;
48823;SDS011;34640;53.590;10.054;2022-11-20T13:52:48;3.88;;;2.25;;
48823;SDS011;34640;53.590;10.054;2022-11-20T13:55:42;4.28;;;2.50;;
48823;SDS011;34640;53.590;10.054;2022-11-20T13:58:26;4.40;;;2.30;;
48823;SDS011;34640;53.590;10.054;2022-11-20T14:01:15;4.40;;;2.20;;
48823;SDS011;34640;53.590;10.054;2022-11-20T14:03:51;5.97;;;2.47;;
48823;SDS011;34640;53.590;10.054;2022-11-20T14:06:42;3.00;;;2.20;;
48823;SDS011;34640;53.590;10.054;2022-11-20T14:09:24;3.17;;;2.17;;
48823;SDS011;34640;53.590;10.054;2022-11-20T14:12:00;4.38;;;2.75;;
48823;SDS011;34640;53.590;10.054;2022-11-20T14:14:36;3.40;;;2.25;;
48823;SDS011;34640;53.590;10.054;2022-11-20T14:17:22;5.97;;;2.72;;
48823;SDS011;34640;53.590;10.054;2022-11-20T14:19:58;5.53;;;3.10;;
48823;SDS011;34640;53.590;10.054;2022-11-20T14:22:34;3.53;;;2.38;;
48823;SDS011;34640;53.590;10.054;2022-11-20T14:25:19;3.30;;;2.22;;
48823;SDS011;34640;53.590;10.054;2022-11-20T14:27:55;5.53;;;2.30;;
48823;SDS011;34640;53.590;10.054;2022-11-20T14:30:38;4.38;;;2.50;;
48823;SDS011;34640;53.590;10.054;2022-11-20T14:33:16;6.90;;;3.38;;
48823;SDS011;34640;53.590;10.054;2022-11-20T14:35:52;7.18;;;3.70;;
48823;SDS011;34640;53.590;10.054;2022-11-20T14:38:28;10.57;;;4.30;;
48823;SDS011;34640;53.590;10.054;2022-11-20T14:41:07;8.85;;;3.90;;
48823;SDS011;34640;53.590;10.054;2022-11-20T14:43:44;6.28;;;3.40;;
48823;SDS011;34640;53.590;10.054;2022-11-20T14:46:20;8.13;;;3.45;;
48823;SDS011;34640;53.590;10.054;2022-11-20T14:48:55;5.57;;;2.35;;
48823;SDS011;34640;53.590;10.054;2022-11-20T14:51:31;8.00;;;2.53;;
48823;SDS011;34640;53.590;10.054;2022-11-20T14:54:08;3.65;;;2.10;;
48823;SDS011;34640;53.590;10.054;2022-11-20T14:56:42;2.90;;;2.13;;
48823;SDS011;34640;53.590;10.054;2022-11-20T14:59:28;3.75;;;2.40;;
48823;SDS011;34640;53.590;10.054;2022-11-20T15:02:05;4.47;;;2.45;;
48823;SDS011;34640;53.590;10.054;2022-11-20T15:04:45;4.72;;;2.20;;
48823;SDS011;34640;53.590;10.054;2022-11-20T15:07:24;5.43;;;2.78;;
48823;SDS011;34640;53.590;10.054;2022-11-20T15:09:59;6.80;;;3.78;;
48823;SDS011;34640;53.590;10.054;2022-11-20T15:12:37;7.33;;;3.00;;
48823;SDS011;34640;53.590;10.054;2022-11-20T15:15:14;8.93;;;3.28;;
48823;SDS011;34640;53.590;10.054;2022-11-20T15:17:53;6.57;;;2.78;;
48823;SDS011;34640;53.590;10.054;2022-11-20T15:20:28;4.53;;;2.88;;
48823;SDS011;34640;53.590;10.054;2022-11-20T15:23:07;5.15;;;2.90;;
48823;SDS011;34640;53.590;10.054;2022-11-20T15:25:44;5.75;;;3.10;;
48823;SDS011;34640;53.590;10.054;2022-11-20T15:28:19;5.75;;;2.67;;
48823;SDS011;34640;53.590;10.054;2022-11-20T15:30:54;4.60;;;2.60;;
48823;SDS011;34640;53.590;10.054;2022-11-20T15:33:30;5.43;;;2.78;;
48823;SDS011;34640;53.590;10.054;2022-11-20T15:36:05;4.57;;;3.08;;
48823;SDS011;34640;53.590;10.054;2022-11-20T15:38:39;5.57;;;3.10;;
48823;SDS011;34640;53.590;10.054;2022-11-20T15:41:12;4.45;;;3.00;;
48823;SDS011;34640;53.590;10.054;2022-11-20T15:43:46;5.88;;;2.70;;
48823;SDS011;34640;53.590;10.054;2022-11-20T15:46:22;5.00;;;2.80;;
48823;SDS011;34640;53.590;10.054;2022-11-20T15:49:00;7.88;;;2.97;;
48823;SDS011;34640;53.590;10.054;2022-11-20T15:51:34;6.10;;;3.08;;